Currently 72°F in Pinon Hills, California, USA
72°F
76°F / 53°F
calm
0.00"
Sunday, October 22, 2017 5:32 PM PDT

Pinon Hills, California Climate Summary
Typical July Day

Normal High:    91.6°F (33.1°C)
Normal Low:    66.5°F (19.1°C)
Average:    79.1°F (26.2°C)

Hour    Temperature    Wind Speed    Humidity
12:00 AM    72°F (22°C)    2 mph    36%
1:00 AM    71°F (22°C)    2 mph    35%
2:00 AM    71°F (22°C)    2 mph    35%
3:00 AM    70°F (21°C)    2 mph    36%
4:00 AM    69°F (20°C)    2 mph    37%
5:00 AM    68°F (20°C)    2 mph    37%
6:00 AM    68°F (20°C)    2 mph    36%
7:00 AM    73°F (23°C)    1 mph    34%
8:00 AM    77°F (25°C)    1 mph    29%
9:00 AM    80°F (27°C)    2 mph    26%
10:00 AM    83°F (28°C)    2 mph    24%
11:00 AM    85°F (29°C)    2 mph    22%
12:00 PM    87°F (30°C)    2 mph    21%
1:00 PM    88°F (31°C)    2 mph    19%
2:00 PM    89°F (32°C)    2 mph    18%
3:00 PM    90°F (32°C)    2 mph    18%
4:00 PM    90°F (32°C)    3 mph    19%
5:00 PM    89°F (31°C)    4 mph    20%
6:00 PM    87°F (31°C)    4 mph    21%
7:00 PM    84°F (29°C)    5 mph    24%
8:00 PM    81°F (27°C)    4 mph    28%
9:00 PM    78°F (25°C)    3 mph    30%
10:00 PM    75°F (24°C)    2 mph    34%
11:00 PM    73°F (23°C)    2 mph    36%
 

The Pinon Hills, California weather pages are a service of WeatherCurrents.
Copyright ©Sun Oct 22 17:32:51 PDT 2017  WeatherCurrents. All rights reserved. - Submit questions and comments - Privacy Policy